createdAt,value
2023-02-03T00:00:01.830Z,97.81
2023-02-03T00:01:01.831Z,97.82
2023-02-03T00:02:01.815Z,97.82
2023-02-03T00:03:01.815Z,97.82
2023-02-03T00:04:01.830Z,97.81
2023-02-03T00:05:01.840Z,97.82
2023-02-03T00:06:01.816Z,97.81
2023-02-03T00:07:01.832Z,97.81
2023-02-03T00:08:01.831Z,97.82
2023-02-03T00:09:01.831Z,97.82
2023-02-03T00:10:01.816Z,97.82
2023-02-03T00:11:01.832Z,97.81
2023-02-03T00:12:01.882Z,97.81
2023-02-03T00:13:01.833Z,97.81
2023-02-03T00:14:01.817Z,97.82
2023-02-03T00:15:01.832Z,97.82
2023-02-03T00:16:01.834Z,97.82
2023-02-03T00:17:01.832Z,97.82
2023-02-03T00:18:01.817Z,97.82
2023-02-03T00:19:01.832Z,97.83
2023-02-03T00:20:01.833Z,97.83
2023-02-03T00:21:01.818Z,97.83
2023-02-03T00:22:01.818Z,97.83
2023-02-03T00:23:01.833Z,97.82
2023-02-03T00:24:01.834Z,97.83
2023-02-03T00:25:01.818Z,97.83
2023-02-03T00:26:01.856Z,97.83
2023-02-03T00:27:01.833Z,97.83
2023-02-03T00:28:01.834Z,97.83
2023-02-03T00:29:01.819Z,97.83
2023-02-03T00:30:01.836Z,97.82
2023-02-03T00:31:01.834Z,97.83
2023-02-03T00:32:01.834Z,97.84
2023-02-03T00:33:01.819Z,97.84
2023-02-03T00:34:01.835Z,97.84
2023-02-03T00:35:01.836Z,97.84
2023-02-03T00:36:01.835Z,97.84
2023-02-03T00:37:01.820Z,97.84
2023-02-03T00:38:01.835Z,97.84
2023-02-03T00:39:01.836Z,97.83
2023-02-03T00:40:01.820Z,97.83
2023-02-03T00:41:01.820Z,97.83
2023-02-03T00:42:01.835Z,97.83
2023-02-03T00:43:01.836Z,97.83
2023-02-03T00:44:01.821Z,97.82
2023-02-03T00:45:01.821Z,97.83
2023-02-03T00:46:01.837Z,97.83
2023-02-03T00:47:01.836Z,97.83
2023-02-03T00:48:01.821Z,97.83
2023-02-03T00:49:01.837Z,97.83
2023-02-03T00:50:01.836Z,97.84
2023-02-03T00:51:01.836Z,97.83
2023-02-03T00:52:01.822Z,97.83
2023-02-03T00:53:01.838Z,97.83
2023-02-03T00:54:01.838Z,97.83
2023-02-03T00:55:01.838Z,97.83
2023-02-03T00:56:01.822Z,97.83
2023-02-03T00:57:01.837Z,97.83
2023-02-03T00:58:01.838Z,97.83
2023-02-03T00:59:01.849Z,97.83
2023-02-03T01:00:01.823Z,97.83
2023-02-03T01:01:01.838Z,97.83
2023-02-03T01:02:01.839Z,97.83
2023-02-03T01:03:01.823Z,97.83
2023-02-03T01:04:01.823Z,97.83
2023-02-03T01:05:01.838Z,97.82
2023-02-03T01:06:01.903Z,97.82
2023-02-03T01:07:01.824Z,97.83
2023-02-03T01:08:01.839Z,97.83
2023-02-03T01:09:01.839Z,97.82
2023-02-03T01:10:01.840Z,97.82
2023-02-03T01:11:01.824Z,97.81
2023-02-03T01:12:01.839Z,97.81
2023-02-03T01:13:01.864Z,97.81
2023-02-03T01:14:01.839Z,97.81
2023-02-03T01:15:01.825Z,97.81
2023-02-03T01:16:01.841Z,97.8
2023-02-03T01:17:01.842Z,97.81
2023-02-03T01:18:01.840Z,97.82
2023-02-03T01:19:01.825Z,97.81
2023-02-03T01:20:01.890Z,97.81
2023-02-03T01:21:01.842Z,97.81
2023-02-03T01:22:01.825Z,97.81
2023-02-03T01:23:01.826Z,97.81
2023-02-03T01:24:01.842Z,97.82
2023-02-03T01:25:01.842Z,97.82
2023-02-03T01:26:01.826Z,97.82
2023-02-03T01:27:01.891Z,97.81
2023-02-03T01:28:01.841Z,97.81
2023-02-03T01:29:01.841Z,97.81
2023-02-03T01:30:01.826Z,97.81
2023-02-03T01:31:01.843Z,97.8
2023-02-03T01:32:01.843Z,97.81
2023-02-03T01:33:01.842Z,97.8
2023-02-03T01:34:01.827Z,97.8
2023-02-03T01:35:01.843Z,97.79
2023-02-03T01:36:01.843Z,97.78
2023-02-03T01:37:01.843Z,97.79
2023-02-03T01:38:01.828Z,97.79
2023-02-03T01:39:01.845Z,97.79
2023-02-03T01:40:01.845Z,97.79
2023-02-03T01:41:01.828Z,97.79
2023-02-03T01:42:01.828Z,97.79
2023-02-03T01:43:01.843Z,97.79
2023-02-03T01:44:01.845Z,97.8
2023-02-03T01:45:01.828Z,97.79
2023-02-03T01:46:01.829Z,97.79
2023-02-03T01:47:01.844Z,97.78
2023-02-03T01:48:01.845Z,97.78
2023-02-03T01:49:01.829Z,97.78
2023-02-03T01:50:01.845Z,97.78
2023-02-03T01:51:01.844Z,97.78
2023-02-03T01:52:01.844Z,97.77
2023-02-03T01:53:01.829Z,97.77
2023-02-03T01:54:01.846Z,97.77
2023-02-03T01:55:01.847Z,97.76
2023-02-03T01:56:01.845Z,97.76
2023-02-03T01:57:01.830Z,97.77
2023-02-03T01:58:01.845Z,97.77
2023-02-03T01:59:01.846Z,97.76
2023-02-03T02:00:01.846Z,97.76
2023-02-03T02:01:01.831Z,97.77
2023-02-03T02:02:01.847Z,97.76
2023-02-03T02:03:01.848Z,97.76
2023-02-03T02:04:01.831Z,97.76
2023-02-03T02:05:01.831Z,97.76
2023-02-03T02:06:01.847Z,97.76
2023-02-03T02:07:01.847Z,97.76
2023-02-03T02:08:01.832Z,97.75
2023-02-03T02:09:01.848Z,97.75
2023-02-03T02:10:01.848Z,97.75
2023-02-03T02:11:01.847Z,97.75
2023-02-03T02:12:01.832Z,97.75
2023-02-03T02:13:01.848Z,97.75
2023-02-03T02:14:01.848Z,97.75
2023-02-03T02:15:01.847Z,97.75
2023-02-03T02:16:01.832Z,97.75
2023-02-03T02:17:01.848Z,97.74
2023-02-03T02:18:01.849Z,97.74
2023-02-03T02:19:01.849Z,97.74
2023-02-03T02:20:01.833Z,97.74
2023-02-03T02:21:01.913Z,97.73
2023-02-03T02:22:01.850Z,97.73
2023-02-03T02:23:01.833Z,97.74
2023-02-03T02:24:01.834Z,97.73
2023-02-03T02:25:01.849Z,97.74
2023-02-03T02:26:01.850Z,97.73
2023-02-03T02:27:01.834Z,97.74
2023-02-03T02:28:01.915Z,97.74
2023-02-03T02:29:01.850Z,97.73
2023-02-03T02:30:01.849Z,97.73
2023-02-03T02:31:01.835Z,97.73
2023-02-03T02:32:01.850Z,97.73
2023-02-03T02:33:01.850Z,97.72
2023-02-03T02:34:01.850Z,97.73
2023-02-03T02:35:01.835Z,97.72
2023-02-03T02:36:01.851Z,97.72
2023-02-03T02:37:01.851Z,97.71
2023-02-03T02:38:01.850Z,97.7
2023-02-03T02:39:01.836Z,97.7
2023-02-03T02:40:01.851Z,97.7
2023-02-03T02:41:01.852Z,97.7
2023-02-03T02:42:01.836Z,97.7
2023-02-03T02:43:01.836Z,97.7
2023-02-03T02:44:01.851Z,97.7
2023-02-03T02:45:01.853Z,97.7
2023-02-03T02:46:01.837Z,97.7
2023-02-03T02:47:01.837Z,97.7
2023-02-03T02:48:01.853Z,97.7
2023-02-03T02:49:01.853Z,97.71
2023-02-03T02:50:01.837Z,97.73
2023-02-03T02:51:01.852Z,97.73
2023-02-03T02:52:01.853Z,97.73
2023-02-03T02:53:01.853Z,97.73
2023-02-03T02:54:01.838Z,97.73
2023-02-03T02:55:01.853Z,97.73
2023-02-03T02:56:01.855Z,97.73
2023-02-03T02:57:01.854Z,97.73
2023-02-03T02:58:01.838Z,97.73
2023-02-03T02:59:01.853Z,97.73
2023-02-03T03:00:01.854Z,97.73
2023-02-03T03:01:01.853Z,97.74
2023-02-03T03:02:01.839Z,97.73
2023-02-03T03:03:01.854Z,97.74
2023-02-03T03:04:01.856Z,97.74
2023-02-03T03:05:01.839Z,97.74
2023-02-03T03:06:01.839Z,97.74
2023-02-03T03:07:01.854Z,97.74
2023-02-03T03:08:01.919Z,97.73
2023-02-03T03:09:01.840Z,97.73
2023-02-03T03:10:01.857Z,97.73
2023-02-03T03:11:01.855Z,97.72
2023-02-03T03:12:01.855Z,97.73
2023-02-03T03:13:01.840Z,97.73
2023-02-03T03:14:01.856Z,97.72
2023-02-03T03:15:01.880Z,97.72
2023-02-03T03:16:01.855Z,97.72
2023-02-03T03:17:01.842Z,97.73
2023-02-03T03:18:01.857Z,97.73
2023-02-03T03:19:01.858Z,97.72
2023-02-03T03:20:01.857Z,97.72
2023-02-03T03:21:01.842Z,97.72
2023-02-03T03:22:01.906Z,97.72
2023-02-03T03:23:01.857Z,97.72
2023-02-03T03:24:01.841Z,97.73
2023-02-03T03:25:01.842Z,97.72
2023-02-03T03:26:01.857Z,97.72
2023-02-03T03:27:01.859Z,97.73
2023-02-03T03:28:01.842Z,97.72
2023-02-03T03:29:01.922Z,97.73
2023-02-03T03:30:01.857Z,97.73
2023-02-03T03:31:01.858Z,97.73
2023-02-03T03:32:01.843Z,97.73
2023-02-03T03:33:01.859Z,97.73
2023-02-03T03:34:01.859Z,97.73
2023-02-03T03:35:01.858Z,97.73
2023-02-03T03:36:01.843Z,97.73
2023-02-03T03:37:01.859Z,97.73
2023-02-03T03:38:01.859Z,97.73
2023-02-03T03:39:01.859Z,97.74
2023-02-03T03:40:01.844Z,97.74
2023-02-03T03:41:01.860Z,97.75
2023-02-03T03:42:01.860Z,97.74
2023-02-03T03:43:01.844Z,97.75
2023-02-03T03:44:01.844Z,97.75
2023-02-03T03:45:01.859Z,97.75
2023-02-03T03:46:01.861Z,97.76
2023-02-03T03:47:01.845Z,97.76
2023-02-03T03:48:01.845Z,97.75
2023-02-03T03:49:01.860Z,97.75
2023-02-03T03:50:01.869Z,97.75
2023-02-03T03:51:01.845Z,97.75
2023-02-03T03:52:01.860Z,97.76
2023-02-03T03:53:01.860Z,97.75
2023-02-03T03:54:01.860Z,97.76
2023-02-03T03:55:01.846Z,97.76
2023-02-03T03:56:01.861Z,97.76
2023-02-03T03:57:01.912Z,97.76
2023-02-03T03:58:01.861Z,97.76
2023-02-03T03:59:01.847Z,97.76
2023-02-03T04:00:01.861Z,97.77
2023-02-03T04:01:01.863Z,97.77
2023-02-03T04:02:01.863Z,97.77
2023-02-03T04:03:01.847Z,97.77
2023-02-03T04:04:01.885Z,97.76
2023-02-03T04:05:01.863Z,97.76
2023-02-03T04:06:01.847Z,97.76
2023-02-03T04:07:01.847Z,97.76
2023-02-03T04:08:01.862Z,97.76
2023-02-03T04:09:01.864Z,97.76
2023-02-03T04:10:01.848Z,97.76
2023-02-03T04:11:01.886Z,97.76
2023-02-03T04:12:01.863Z,97.76
2023-02-03T04:13:01.863Z,97.75
2023-02-03T04:14:01.849Z,97.75
2023-02-03T04:15:01.863Z,97.75
2023-02-03T04:16:01.864Z,97.75
2023-02-03T04:17:01.864Z,97.75
2023-02-03T04:18:01.849Z,97.75
2023-02-03T04:19:01.865Z,97.75
2023-02-03T04:20:01.865Z,97.75
2023-02-03T04:21:01.864Z,97.74
2023-02-03T04:22:01.849Z,97.73
2023-02-03T04:23:01.865Z,97.74
2023-02-03T04:24:01.865Z,97.74
2023-02-03T04:25:01.850Z,97.74
2023-02-03T04:26:01.850Z,97.75
2023-02-03T04:27:01.865Z,97.75
2023-02-03T04:28:01.867Z,97.75
2023-02-03T04:29:01.850Z,97.75
2023-02-03T04:30:01.850Z,97.75
2023-02-03T04:31:01.865Z,97.75
2023-02-03T04:32:01.866Z,97.74
2023-02-03T04:33:01.851Z,97.75
2023-02-03T04:34:01.867Z,97.74
2023-02-03T04:35:01.866Z,97.74
2023-02-03T04:36:01.867Z,97.74
2023-02-03T04:37:01.852Z,97.73
2023-02-03T04:38:01.867Z,97.73
2023-02-03T04:39:01.868Z,97.73
2023-02-03T04:40:01.867Z,97.73
2023-02-03T04:41:01.852Z,97.73
2023-02-03T04:42:01.867Z,97.74
2023-02-03T04:43:01.869Z,97.74
2023-02-03T04:44:01.877Z,97.74
2023-02-03T04:45:01.852Z,97.74
2023-02-03T04:46:01.868Z,97.74
2023-02-03T04:47:01.870Z,97.74
2023-02-03T04:48:01.853Z,97.73
2023-02-03T04:49:01.853Z,97.73
2023-02-03T04:50:01.868Z,97.73
2023-02-03T04:51:01.892Z,97.73
2023-02-03T04:52:01.853Z,97.73
2023-02-03T04:53:01.869Z,97.72
2023-02-03T04:54:01.868Z,97.72
2023-02-03T04:55:01.870Z,97.71
2023-02-03T04:56:01.854Z,97.7
2023-02-03T04:57:01.870Z,97.7
2023-02-03T04:58:01.921Z,97.7
2023-02-03T04:59:01.870Z,97.69
2023-02-03T05:00:01.855Z,97.69
2023-02-03T05:01:01.870Z,97.69
2023-02-03T05:02:01.871Z,97.7
2023-02-03T05:03:01.870Z,97.71
2023-02-03T05:04:01.855Z,97.71
2023-02-03T05:05:01.893Z,97.71
2023-02-03T05:06:01.872Z,97.7
2023-02-03T05:07:01.855Z,97.7
2023-02-03T05:08:01.855Z,97.7
2023-02-03T05:09:01.871Z,97.7
2023-02-03T05:10:01.873Z,97.71
2023-02-03T05:11:01.856Z,97.71
2023-02-03T05:12:01.894Z,97.71
2023-02-03T05:13:01.872Z,97.71
2023-02-03T05:14:01.871Z,97.71
2023-02-03T05:15:01.856Z,97.71
2023-02-03T05:16:01.872Z,97.72
2023-02-03T05:17:01.872Z,97.71
2023-02-03T05:18:01.872Z,97.71
2023-02-03T05:19:01.857Z,97.71
2023-02-03T05:20:01.872Z,97.71
2023-02-03T05:21:01.873Z,97.71
2023-02-03T05:22:01.872Z,97.71
2023-02-03T05:23:01.857Z,97.71
2023-02-03T05:24:01.872Z,97.71
2023-02-03T05:25:01.874Z,97.7
2023-02-03T05:26:01.858Z,97.7
2023-02-03T05:27:01.858Z,97.71
2023-02-03T05:28:01.873Z,97.71
2023-02-03T05:29:01.874Z,97.71
2023-02-03T05:30:01.858Z,97.71
2023-02-03T05:31:01.858Z,97.72
2023-02-03T05:32:01.873Z,97.71
2023-02-03T05:33:01.897Z,97.72
2023-02-03T05:34:01.859Z,97.72
2023-02-03T05:35:01.875Z,97.72
2023-02-03T05:36:01.874Z,97.73
2023-02-03T05:37:01.874Z,97.73
2023-02-03T05:38:01.859Z,97.72
2023-02-03T05:39:01.875Z,97.73
2023-02-03T05:40:01.926Z,97.72
2023-02-03T05:41:01.875Z,97.72
2023-02-03T05:42:01.860Z,97.72
2023-02-03T05:43:01.876Z,97.72
2023-02-03T05:44:01.877Z,97.72
2023-02-03T05:45:01.876Z,97.72
2023-02-03T05:46:01.860Z,97.72
2023-02-03T05:47:01.898Z,97.71
2023-02-03T05:48:01.878Z,97.72
2023-02-03T05:49:01.861Z,97.72
2023-02-03T05:50:01.861Z,97.71
2023-02-03T05:51:01.877Z,97.71
2023-02-03T05:52:01.877Z,97.71
2023-02-03T05:53:01.861Z,97.71
2023-02-03T05:54:01.876Z,97.71
2023-02-03T05:55:01.876Z,97.71
2023-02-03T05:56:01.877Z,97.71
2023-02-03T05:57:01.863Z,97.71
2023-02-03T05:58:01.878Z,97.72
2023-02-03T05:59:01.878Z,97.72
2023-02-03T06:00:01.878Z,97.72
2023-02-03T06:01:01.862Z,97.71
2023-02-03T06:02:01.879Z,97.71
2023-02-03T06:03:01.879Z,97.71
2023-02-03T06:04:01.878Z,97.71
2023-02-03T06:05:01.863Z,97.72
2023-02-03T06:06:01.878Z,97.73
2023-02-03T06:07:01.880Z,97.73
2023-02-03T06:08:01.863Z,97.73
2023-02-03T06:09:01.863Z,97.73
2023-02-03T06:10:01.879Z,97.73
2023-02-03T06:11:01.880Z,97.74
2023-02-03T06:12:01.864Z,97.74
2023-02-03T06:13:01.864Z,97.75
2023-02-03T06:14:01.879Z,97.75
2023-02-03T06:15:01.880Z,97.75
2023-02-03T06:16:01.864Z,97.75
2023-02-03T06:17:01.879Z,97.75
2023-02-03T06:18:01.880Z,97.76
2023-02-03T06:19:01.880Z,97.76
2023-02-03T06:20:01.865Z,97.75
2023-02-03T06:21:01.880Z,97.74
2023-02-03T06:22:01.881Z,97.74
2023-02-03T06:23:01.880Z,97.74
2023-02-03T06:24:01.866Z,97.74
2023-02-03T06:25:01.881Z,97.73
2023-02-03T06:26:01.882Z,97.73
2023-02-03T06:27:01.866Z,97.73
2023-02-03T06:28:01.866Z,97.72
2023-02-03T06:29:01.881Z,97.72
2023-02-03T06:30:01.883Z,97.72
2023-02-03T06:31:01.866Z,97.72
2023-02-03T06:32:01.866Z,97.71
2023-02-03T06:33:01.882Z,97.71
2023-02-03T06:34:01.891Z,97.71
2023-02-03T06:35:01.867Z,97.71
2023-02-03T06:36:01.882Z,97.71
2023-02-03T06:37:01.882Z,97.7
2023-02-03T06:38:01.883Z,97.7
2023-02-03T06:39:01.867Z,97.7
2023-02-03T06:40:01.883Z,97.7
2023-02-03T06:41:01.935Z,97.7
2023-02-03T06:42:01.883Z,97.7
2023-02-03T06:43:01.868Z,97.7
2023-02-03T06:44:01.884Z,97.7
2023-02-03T06:45:01.885Z,97.7
2023-02-03T06:46:01.883Z,97.7
2023-02-03T06:47:01.869Z,97.69
2023-02-03T06:48:01.907Z,97.69
2023-02-03T06:49:01.886Z,97.69
2023-02-03T06:50:01.869Z,97.69
2023-02-03T06:51:01.870Z,97.69
2023-02-03T06:52:01.884Z,97.69
2023-02-03T06:53:01.885Z,97.7
2023-02-03T06:54:01.869Z,97.7
2023-02-03T06:55:01.907Z,97.69
2023-02-03T06:56:01.885Z,97.68
2023-02-03T06:57:01.885Z,97.68
2023-02-03T06:58:01.870Z,97.68
2023-02-03T06:59:01.886Z,97.67
2023-02-03T07:00:01.885Z,97.68
2023-02-03T07:01:01.886Z,97.67
2023-02-03T07:02:01.870Z,97.67
2023-02-03T07:03:01.887Z,97.66
2023-02-03T07:04:01.888Z,97.66
2023-02-03T07:05:01.886Z,97.66
2023-02-03T07:06:01.872Z,97.66
2023-02-03T07:07:01.887Z,97.66
2023-02-03T07:08:01.887Z,97.67
2023-02-03T07:09:01.871Z,97.68
2023-02-03T07:10:01.871Z,97.67
2023-02-03T07:11:01.887Z,97.67
2023-02-03T07:12:01.889Z,97.67
2023-02-03T07:13:01.872Z,97.67
2023-02-03T07:14:01.873Z,97.66
2023-02-03T07:15:01.887Z,97.66
2023-02-03T07:16:01.888Z,97.66
2023-02-03T07:17:01.872Z,97.66
2023-02-03T07:18:01.888Z,97.65
2023-02-03T07:19:01.888Z,97.66
2023-02-03T07:20:01.888Z,97.67
2023-02-03T07:21:01.873Z,97.67
2023-02-03T07:22:01.888Z,97.66
2023-02-03T07:23:01.889Z,97.67
2023-02-03T07:24:01.888Z,97.67
2023-02-03T07:25:01.873Z,97.67
2023-02-03T07:26:01.889Z,97.67
2023-02-03T07:27:01.890Z,97.67
2023-02-03T07:28:01.889Z,97.67
2023-02-03T07:29:01.874Z,97.67
2023-02-03T07:30:01.891Z,97.67
2023-02-03T07:31:01.891Z,97.67
2023-02-03T07:32:01.874Z,97.68
2023-02-03T07:33:01.875Z,97.69
2023-02-03T07:34:01.890Z,97.69
2023-02-03T07:35:01.955Z,97.7
2023-02-03T07:36:01.875Z,97.7
2023-02-03T07:37:01.891Z,97.7
2023-02-03T07:38:01.890Z,97.7
2023-02-03T07:39:01.891Z,97.7
2023-02-03T07:40:01.875Z,97.7
2023-02-03T07:41:01.891Z,97.7
2023-02-03T07:42:01.917Z,97.7
2023-02-03T07:43:01.892Z,97.71
2023-02-03T07:44:01.876Z,97.71
2023-02-03T07:45:01.892Z,97.72
2023-02-03T07:46:01.893Z,97.72
2023-02-03T07:47:01.891Z,97.72
2023-02-03T07:48:01.877Z,97.72
2023-02-03T07:49:01.942Z,97.73
2023-02-03T07:50:01.894Z,97.72
2023-02-03T07:51:01.878Z,97.72
2023-02-03T07:52:01.877Z,97.72
2023-02-03T07:53:01.892Z,97.72
2023-02-03T07:54:01.893Z,97.72
2023-02-03T07:55:01.877Z,97.72
2023-02-03T07:56:01.958Z,97.71
2023-02-03T07:57:01.894Z,97.71
2023-02-03T07:58:01.893Z,97.71
2023-02-03T07:59:01.878Z,97.71
2023-02-03T08:00:01.893Z,97.71
2023-02-03T08:01:01.893Z,97.7
2023-02-03T08:02:01.894Z,97.7
2023-02-03T08:03:01.879Z,97.71
2023-02-03T08:04:01.894Z,97.72
2023-02-03T08:05:01.896Z,97.73
2023-02-03T08:06:01.895Z,97.72
2023-02-03T08:07:01.879Z,97.72
2023-02-03T08:08:01.895Z,97.73
2023-02-03T08:09:01.895Z,97.73
2023-02-03T08:10:01.879Z,97.73
2023-02-03T08:11:01.880Z,97.73
2023-02-03T08:12:01.896Z,97.74
2023-02-03T08:13:01.897Z,97.74
2023-02-03T08:14:01.881Z,97.73
2023-02-03T08:15:01.880Z,97.73
2023-02-03T08:16:01.896Z,97.73
2023-02-03T08:17:01.895Z,97.72
2023-02-03T08:18:01.880Z,97.72
2023-02-03T08:19:01.897Z,97.72
2023-02-03T08:20:01.897Z,97.72
2023-02-03T08:21:01.896Z,97.71
2023-02-03T08:22:01.882Z,97.72
2023-02-03T08:23:01.897Z,97.72
2023-02-03T08:24:01.897Z,97.72
2023-02-03T08:25:01.896Z,97.72
2023-02-03T08:26:01.882Z,97.72
2023-02-03T08:27:01.898Z,97.73
2023-02-03T08:28:01.899Z,97.73
2023-02-03T08:29:01.898Z,97.72
2023-02-03T08:30:01.882Z,97.72
2023-02-03T08:31:01.897Z,97.73
2023-02-03T08:32:01.898Z,97.73
2023-02-03T08:33:01.882Z,97.73
2023-02-03T08:34:01.883Z,97.72
2023-02-03T08:35:01.898Z,97.72
2023-02-03T08:36:01.900Z,97.72
2023-02-03T08:37:01.883Z,97.71
2023-02-03T08:38:01.899Z,97.72
2023-02-03T08:39:01.898Z,97.71
2023-02-03T08:40:01.899Z,97.72
2023-02-03T08:41:01.884Z,97.72
2023-02-03T08:42:01.900Z,97.72
2023-02-03T08:43:01.925Z,97.72
2023-02-03T08:44:01.899Z,97.72
2023-02-03T08:45:01.884Z,97.71
2023-02-03T08:46:01.900Z,97.71
2023-02-03T08:47:01.901Z,97.71
2023-02-03T08:48:01.900Z,97.72
2023-02-03T08:49:01.885Z,97.72
2023-02-03T08:50:01.950Z,97.71
2023-02-03T08:51:01.902Z,97.72
2023-02-03T08:52:01.885Z,97.72
2023-02-03T08:53:01.885Z,97.72
2023-02-03T08:54:01.901Z,97.72
2023-02-03T08:55:01.902Z,97.73
2023-02-03T08:56:01.885Z,97.74
2023-02-03T08:57:01.966Z,97.74
2023-02-03T08:58:01.902Z,97.74
2023-02-03T08:59:01.902Z,97.74
2023-02-03T09:00:01.886Z,97.74
2023-02-03T09:01:01.901Z,97.74
2023-02-03T09:02:01.902Z,97.74
2023-02-03T09:03:01.902Z,97.73
2023-02-03T09:04:01.887Z,97.72
2023-02-03T09:05:01.903Z,97.72
2023-02-03T09:06:01.903Z,97.71
2023-02-03T09:07:01.903Z,97.71
2023-02-03T09:08:01.888Z,97.72
2023-02-03T09:09:01.902Z,97.72
2023-02-03T09:10:01.903Z,97.73
2023-02-03T09:11:01.889Z,97.73
2023-02-03T09:12:01.888Z,97.72
2023-02-03T09:13:01.903Z,97.71
2023-02-03T09:14:01.904Z,97.71
2023-02-03T09:15:01.888Z,97.72
2023-02-03T09:16:01.888Z,97.72
2023-02-03T09:17:01.903Z,97.73
2023-02-03T09:18:01.903Z,97.72
2023-02-03T09:19:01.889Z,97.71
2023-02-03T09:20:01.905Z,97.71
2023-02-03T09:21:01.905Z,97.71
2023-02-03T09:22:01.904Z,97.72
2023-02-03T09:23:01.889Z,97.71
2023-02-03T09:24:01.905Z,97.72
2023-02-03T09:25:01.905Z,97.73
2023-02-03T09:26:01.905Z,97.72
2023-02-03T09:27:01.890Z,97.72
2023-02-03T09:28:01.905Z,97.72
2023-02-03T09:29:01.907Z,97.73
2023-02-03T09:30:01.905Z,97.72
2023-02-03T09:31:01.890Z,97.73
2023-02-03T09:32:01.905Z,97.73
2023-02-03T09:33:01.907Z,97.73
2023-02-03T09:34:01.891Z,97.73
2023-02-03T09:35:01.891Z,97.73
2023-02-03T09:36:01.906Z,97.73
2023-02-03T09:37:01.908Z,97.73
2023-02-03T09:38:01.891Z,97.73
2023-02-03T09:39:01.906Z,97.72
2023-02-03T09:40:01.907Z,97.73
2023-02-03T09:41:01.907Z,97.73
2023-02-03T09:42:01.892Z,97.72
2023-02-03T09:43:01.907Z,97.72
2023-02-03T09:44:01.932Z,97.71
2023-02-03T09:45:01.907Z,97.72
2023-02-03T09:46:01.892Z,97.71
2023-02-03T09:47:01.907Z,97.72
2023-02-03T09:48:01.909Z,97.71
2023-02-03T09:49:01.909Z,97.71
2023-02-03T09:50:01.893Z,97.7
2023-02-03T09:51:01.908Z,97.7
2023-02-03T09:52:01.910Z,97.71
2023-02-03T09:53:01.893Z,97.71
2023-02-03T09:54:01.893Z,97.71
2023-02-03T09:55:01.908Z,97.71
2023-02-03T09:56:01.911Z,97.71
2023-02-03T09:57:01.894Z,97.71
2023-02-03T09:58:01.909Z,97.72
2023-02-03T09:59:01.909Z,97.71
2023-02-03T10:00:01.909Z,97.71
2023-02-03T10:01:01.894Z,97.71
2023-02-03T10:02:01.911Z,97.7
2023-02-03T10:03:01.911Z,97.71
2023-02-03T10:04:01.910Z,97.71
2023-02-03T10:05:01.896Z,97.7
2023-02-03T10:06:01.912Z,97.7
2023-02-03T10:07:01.912Z,97.71
2023-02-03T10:08:01.910Z,97.71
2023-02-03T10:09:01.895Z,97.71
2023-02-03T10:10:01.912Z,97.71
2023-02-03T10:11:01.913Z,97.72
2023-02-03T10:12:01.896Z,97.73
2023-02-03T10:13:01.896Z,97.73
2023-02-03T10:14:01.911Z,97.73
2023-02-03T10:15:01.912Z,97.74
2023-02-03T10:16:01.896Z,97.73
2023-02-03T10:17:01.978Z,97.73
2023-02-03T10:19:01.912Z,97.74
2023-02-03T10:20:01.897Z,97.74
2023-02-03T10:21:01.913Z,97.74
2023-02-03T10:22:01.912Z,97.73
2023-02-03T10:23:01.913Z,97.73
2023-02-03T10:24:01.898Z,97.74
2023-02-03T10:25:01.914Z,97.74
2023-02-03T10:26:01.915Z,97.74
2023-02-03T10:27:01.914Z,97.73
2023-02-03T10:28:01.898Z,97.73
2023-02-03T10:29:01.913Z,97.73
2023-02-03T10:30:01.914Z,97.74
2023-02-03T10:31:01.899Z,97.73
2023-02-03T10:32:01.899Z,97.74
2023-02-03T10:33:01.916Z,97.74
2023-02-03T10:34:01.916Z,97.74
2023-02-03T10:35:01.900Z,97.73
2023-02-03T10:36:01.899Z,97.74
2023-02-03T10:37:01.915Z,97.74
2023-02-03T10:38:01.939Z,97.74
2023-02-03T10:39:01.900Z,97.74
2023-02-03T10:40:01.916Z,97.73
2023-02-03T10:41:01.915Z,97.73
2023-02-03T10:42:01.915Z,97.74
2023-02-03T10:43:01.901Z,97.74
2023-02-03T10:44:01.918Z,97.74
2023-02-03T10:45:01.967Z,97.74
2023-02-03T10:46:01.916Z,97.74
2023-02-03T10:47:01.901Z,97.75
2023-02-03T10:48:01.917Z,97.75
2023-02-03T10:49:01.917Z,97.74
2023-02-03T10:50:01.917Z,97.74
2023-02-03T10:51:01.902Z,97.74
2023-02-03T10:52:01.927Z,97.73
2023-02-03T10:53:01.918Z,97.73
2023-02-03T10:54:01.902Z,97.72
2023-02-03T10:55:01.903Z,97.72
2023-02-03T10:56:01.917Z,97.72
2023-02-03T10:57:01.920Z,97.71
2023-02-03T10:58:01.903Z,97.71
2023-02-03T10:59:01.941Z,97.7
2023-02-03T11:00:01.918Z,97.71
2023-02-03T11:01:01.919Z,97.71
2023-02-03T11:02:01.904Z,97.71
2023-02-03T11:03:01.918Z,97.71
2023-02-03T11:04:01.920Z,97.7
2023-02-03T11:05:01.920Z,97.7
2023-02-03T11:06:01.904Z,97.69
2023-02-03T11:07:01.920Z,97.69
2023-02-03T11:08:01.920Z,97.68
2023-02-03T11:09:01.920Z,97.68
2023-02-03T11:10:01.904Z,97.66
2023-02-03T11:11:01.921Z,97.67
2023-02-03T11:12:01.922Z,97.68
2023-02-03T11:13:01.905Z,97.69
2023-02-03T11:14:01.905Z,97.68
2023-02-03T11:15:01.920Z,97.68
2023-02-03T11:16:01.921Z,97.68
2023-02-03T11:17:01.906Z,97.68
2023-02-03T11:18:01.906Z,97.69
2023-02-03T11:19:01.921Z,97.68
2023-02-03T11:20:01.921Z,97.68
2023-02-03T11:21:01.906Z,97.68
2023-02-03T11:22:01.921Z,97.67
2023-02-03T11:23:01.921Z,97.68
2023-02-03T11:24:01.921Z,97.68
2023-02-03T11:25:01.907Z,97.68
2023-02-03T11:26:01.923Z,97.68
2023-02-03T11:27:01.924Z,97.67
2023-02-03T11:28:01.923Z,97.67
2023-02-03T11:29:01.907Z,97.67
2023-02-03T11:30:01.923Z,97.67
2023-02-03T11:31:01.924Z,97.67
2023-02-03T11:32:01.924Z,97.67
2023-02-03T11:33:01.908Z,97.68
2023-02-03T11:34:01.923Z,97.68
2023-02-03T11:35:01.925Z,97.68
2023-02-03T11:36:01.909Z,97.67
2023-02-03T11:37:01.908Z,97.68
2023-02-03T11:38:01.924Z,97.66
2023-02-03T11:39:01.925Z,97.67
2023-02-03T11:40:01.909Z,97.66
2023-02-03T11:41:01.925Z,97.65
2023-02-03T11:42:01.924Z,97.65
2023-02-03T11:43:01.925Z,97.66
2023-02-03T11:44:01.909Z,97.65
2023-02-03T11:45:01.926Z,97.64
2023-02-03T11:46:01.950Z,97.64
2023-02-03T11:47:01.926Z,97.64
2023-02-03T11:48:01.910Z,97.62
2023-02-03T11:49:01.926Z,97.62
2023-02-03T11:50:01.926Z,97.62
2023-02-03T11:51:01.926Z,97.62
2023-02-03T11:52:01.911Z,97.62
2023-02-03T11:53:01.976Z,97.61
2023-02-03T11:54:01.928Z,97.61
2023-02-03T11:55:01.911Z,97.61
2023-02-03T11:56:01.911Z,97.61
2023-02-03T11:57:01.926Z,97.61
2023-02-03T11:58:01.928Z,97.61
2023-02-03T11:59:01.913Z,97.61
2023-02-03T12:00:01.912Z,97.6
2023-02-03T12:01:01.927Z,97.6
2023-02-03T12:02:01.928Z,97.6
2023-02-03T12:03:01.912Z,97.59
2023-02-03T12:04:01.928Z,97.59
2023-02-03T12:05:01.929Z,97.59
2023-02-03T12:06:01.929Z,97.59
2023-02-03T12:07:01.913Z,97.6
2023-02-03T12:08:01.929Z,97.6
2023-02-03T12:09:01.930Z,97.6
2023-02-03T12:10:01.928Z,97.6
2023-02-03T12:11:01.915Z,97.6
2023-02-03T12:12:01.930Z,97.6
2023-02-03T12:13:01.931Z,97.59
2023-02-03T12:14:01.000Z,97.6
2023-02-03T12:15:01.914Z,97.59
2023-02-03T12:16:01.929Z,97.6
2023-02-03T12:17:01.931Z,97.6
2023-02-03T12:18:01.916Z,97.58
2023-02-03T12:19:01.915Z,97.57
2023-02-03T12:20:01.930Z,97.58
2023-02-03T12:21:01.953Z,97.57
2023-02-03T12:22:01.915Z,97.56
2023-02-03T12:23:01.931Z,97.56
2023-02-03T12:24:01.930Z,97.55
2023-02-03T12:25:01.931Z,97.57
2023-02-03T12:26:01.916Z,97.57
2023-02-03T12:27:01.932Z,97.57
2023-02-03T12:28:01.983Z,97.57
2023-02-03T12:29:01.932Z,97.56
2023-02-03T12:30:01.916Z,97.56
2023-02-03T12:31:01.933Z,97.57
2023-02-03T12:32:01.934Z,97.56
2023-02-03T12:33:01.932Z,97.56
2023-02-03T12:34:01.917Z,97.57
2023-02-03T12:35:01.932Z,97.57
2023-02-03T12:36:01.933Z,97.57
2023-02-03T12:37:01.917Z,97.56
2023-02-03T12:38:01.918Z,97.56
2023-02-03T12:39:01.933Z,97.56
2023-02-03T12:40:01.934Z,97.55
2023-02-03T12:41:01.918Z,97.55
2023-02-03T12:42:01.934Z,97.56
2023-02-03T12:43:01.934Z,97.54
2023-02-03T12:44:01.935Z,97.55
2023-02-03T12:45:01.919Z,97.55
2023-02-03T12:46:01.935Z,97.55
2023-02-03T12:47:01.936Z,97.55
2023-02-03T12:48:01.935Z,97.54
2023-02-03T12:49:01.920Z,97.55
2023-02-03T12:50:01.936Z,97.54
2023-02-03T12:51:01.937Z,97.55
2023-02-03T12:52:01.936Z,97.55
2023-02-03T12:53:01.921Z,97.56
2023-02-03T12:54:01.936Z,97.57
2023-02-03T12:55:01.936Z,97.57